Time;durP1;ratioP1;P1;durP2;ratioP2;P2;SDS_P1;SDS_P2;PMS_P1;PMS_P2;Temp;Humidity;BMP_temperature;BMP_pressure;BME280_temperature;BME280_humidity;BME280_pressure;Samples;Min_cycle;Max_cycle;Signal;HPM_P1;HPM_P2
2022/03/31 03:58:43;;;;;;;21.23;9.75;;;;;;;10.55;77.16;98626.75;6454413;27;20080;31
2022/03/31 04:01:46;;;;;;;22.90;9.77;;;;;;;10.62;76.83;98603.31;6499394;27;33912;-87
2022/03/31 04:04:49;;;;;;;21.20;9.43;;;;;;;10.67;76.31;98606.94;6499096;27;33944;-87
2022/03/31 04:07:52;;;;;;;21.62;11.00;;;;;;;10.74;75.99;98601.53;6499061;27;34614;-87
2022/03/31 04:10:55;;;;;;;22.37;10.25;;;;;;;10.74;75.60;98606.09;6499203;27;34112;-87
2022/03/31 04:13:57;;;;;;;20.65;10.20;;;;;;;10.79;75.02;98600.84;6498747;27;33655;-87
2022/03/31 04:17:01;;;;;;;21.42;11.68;;;;;;;10.77;75.25;98595.69;6500503;27;33655;-87
2022/03/31 04:20:04;;;;;;;23.60;10.70;;;;;;;10.80;74.96;98597.94;6506988;27;34338;-87
2022/03/31 04:23:07;;;;;;;24.42;10.57;;;;;;;10.88;74.22;98604.88;6518025;27;34257;-87
2022/03/31 04:26:10;;;;;;;24.40;10.32;;;;;;;10.81;74.40;98594.19;6539771;27;35407;-87
2022/03/31 04:29:13;;;;;;;20.95;10.55;;;;;;;10.81;74.32;98590.69;6582848;27;34286;-87
2022/03/31 04:32:16;;;;;;;25.88;10.27;;;;;;;10.75;74.64;98591.56;6579767;27;33907;-87
2022/03/31 04:35:19;;;;;;;20.98;9.80;;;;;;;10.72;74.88;98594.72;6580074;27;33915;-87
2022/03/31 04:38:22;;;;;;;22.37;10.55;;;;;;;10.74;75.02;98592.63;6580168;27;33804;-87
2022/03/31 04:41:25;;;;;;;20.23;10.68;;;;;;;10.74;74.86;98600.72;6580776;27;33899;-87
2022/03/31 04:44:27;;;;;;;18.10;9.55;;;;;;;10.76;74.80;98596.72;6594706;26;33986;-87
2022/03/31 04:47:31;;;;;;;22.75;9.90;;;;;;;10.79;74.66;98588.22;6596549;26;34961;-87
2022/03/31 04:50:34;;;;;;;22.60;10.60;;;;;;;10.95;73.93;98596.75;6575551;27;34160;-87
2022/03/31 04:53:37;;;;;;;19.02;10.50;;;;;;;10.87;73.80;98593.28;6594077;27;33994;-87
2022/03/31 04:56:39;;;;;;;21.52;11.15;;;;;;;10.85;73.81;98591.87;6594313;27;33877;-87
2022/03/31 04:59:43;;;;;;;20.40;9.68;;;;;;;10.81;74.08;98588.81;6583084;26;35278;-87
2022/03/31 05:02:45;;;;;;;19.52;9.50;;;;;;;10.80;73.97;98586.34;6575630;26;35140;-87
2022/03/31 05:05:49;;;;;;;25.20;10.18;;;;;;;10.89;73.70;98587.69;6585082;27;34438;-87
2022/03/31 05:08:52;;;;;;;20.20;11.60;;;;;;;10.84;74.58;98587.53;6588026;27;34381;-87
2022/03/31 05:11:56;;;;;;;26.45;10.30;;;;;;;10.85;75.28;98590.03;6588874;27;34299;-87
2022/03/31 05:15:04;;;;;;;26.12;12.10;;;;;;;10.80;76.46;98589.03;6594465;27;34385;-86
2022/03/31 05:18:08;;;;;;;24.00;10.55;;;;;;;10.80;77.22;98587.16;6580952;27;34818;-86
2022/03/31 05:21:11;;;;;;;27.30;12.13;;;;;;;10.83;76.11;98584.03;6580420;27;33661;-87
2022/03/31 05:24:14;;;;;;;26.70;11.63;;;;;;;10.73;77.61;98588.28;6580394;27;33996;-87
2022/03/31 05:27:17;;;;;;;25.70;11.45;;;;;;;10.72;77.61;98584.75;6581918;27;33799;-86
2022/03/31 05:30:20;;;;;;;22.67;10.82;;;;;;;10.80;77.55;98584.47;6581030;27;35087;-86
2022/03/31 05:33:23;;;;;;;23.33;11.25;;;;;;;10.83;76.65;98588.59;6579693;27;33848;-87
2022/03/31 05:36:26;;;;;;;19.95;10.65;;;;;;;10.82;76.96;98593.16;6579480;27;34677;-86
2022/03/31 05:39:29;;;;;;;21.02;11.02;;;;;;;10.82;77.53;98592.31;6579481;27;34751;-86
2022/03/31 05:42:33;;;;;;;21.70;11.73;;;;;;;10.88;77.73;98588.72;6579812;27;34471;-87
2022/03/31 05:45:35;;;;;;;27.40;12.85;;;;;;;10.86;77.33;98594.34;6571827;27;226800;-86
2022/03/31 05:48:39;;;;;;;24.63;11.60;;;;;;;10.88;79.23;98589.56;6580421;27;33895;-89
2022/03/31 05:51:41;;;;;;;26.05;12.20;;;;;;;10.99;77.29;98587.16;6579872;27;33871;-91
2022/03/31 05:54:45;;;;;;;24.55;12.05;;;;;;;10.88;77.77;98584.19;6579218;27;33842;-91
2022/03/31 05:57:48;;;;;;;22.23;11.23;;;;;;;10.89;77.49;98582.31;6579536;27;35243;-90
2022/03/31 06:00:53;;;;;;;25.62;12.57;;;;;;;10.73;79.17;98583.72;6580264;27;34443;-87
2022/03/31 06:03:56;;;;;;;26.58;12.50;;;;;;;10.60;83.17;98583.84;6580032;27;34761;-87
2022/03/31 06:06:59;;;;;;;29.55;14.25;;;;;;;10.57;85.72;98584.31;6579627;27;34364;-87
2022/03/31 06:10:03;;;;;;;27.50;14.10;;;;;;;10.55;85.30;98591.75;6580476;27;34324;-87
2022/03/31 06:13:07;;;;;;;26.25;15.13;;;;;;;10.46;85.28;98596.59;6580892;27;33874;-87
2022/03/31 06:16:13;;;;;;;25.08;14.50;;;;;;;10.35;87.13;98600.81;6582933;27;33864;-87
2022/03/31 06:19:17;;;;;;;29.00;15.50;;;;;;;10.39;86.93;98599.37;6589361;27;33731;-87
2022/03/31 06:22:20;;;;;;;27.05;14.18;;;;;;;10.38;88.30;98607.63;6589147;27;35145;-87
2022/03/31 06:25:23;;;;;;;24.52;15.02;;;;;;;10.37;87.76;98600.63;6586950;26;33604;-87
2022/03/31 06:28:28;;;;;;;30.25;16.35;;;;;;;10.33;86.46;98604.81;6591011;27;34165;-87
2022/03/31 06:31:32;;;;;;;25.92;14.93;;;;;;;10.39;88.50;98595.84;6588311;26;34176;-87
2022/03/31 06:34:39;;;;;;;27.52;16.10;;;;;;;10.36;87.90;98610.56;6580307;27;33963;-87
2022/03/31 06:37:46;;;;;;;31.23;16.70;;;;;;;10.42;88.02;98611.56;6579352;27;35292;-87
2022/03/31 06:41:13;;;;;;;32.92;17.17;;;;;;;10.43;88.10;98616.69;6580926;27;34094;-87
2022/03/31 06:44:16;;;;;;;24.23;15.02;;;;;;;10.28;89.08;98612.69;6603658;27;34660;-86
2022/03/31 06:47:19;;;;;;;26.87;15.27;;;;;;;10.26;93.04;98622.81;6608615;27;33626;-86
2022/03/31 06:50:21;;;;;;;33.63;18.73;;;;;;;10.18;93.99;98630.13;6608202;27;33941;-87
2022/03/31 06:53:25;;;;;;;29.85;17.23;;;;;;;10.09;96.00;98630.59;6608610;27;33954;-86
2022/03/31 06:56:29;;;;;;;33.70;17.08;;;;;;;10.02;95.33;98641.41;6586322;27;33700;-86
2022/03/31 06:59:32;;;;;;;26.42;16.20;;;;;;;9.86;97.36;98639.25;6607584;27;34639;-87
2022/03/31 07:02:34;;;;;;;29.87;16.33;;;;;;;9.75;98.37;98632.69;6606915;27;33643;-86
2022/03/31 07:05:38;;;;;;;27.13;14.80;;;;;;;9.74;99.57;98631.03;6606823;27;34099;-87
2022/03/31 07:08:41;;;;;;;25.48;15.02;;;;;;;9.62;98.90;98633.56;6607293;27;34074;-86
2022/03/31 07:11:44;;;;;;;27.58;14.95;;;;;;;9.50;100.00;98638.78;6610496;27;35352;-86
2022/03/31 07:14:47;;;;;;;32.75;17.40;;;;;;;9.46;100.00;98634.06;6607367;27;34574;-86
2022/03/31 07:17:50;;;;;;;26.48;15.45;;;;;;;9.40;100.00;98629.53;6606803;27;33913;-86
2022/03/31 07:20:53;;;;;;;30.15;15.82;;;;;;;9.38;100.00;98629.75;6615166;27;33655;-86
2022/03/31 07:23:56;;;;;;;28.90;17.08;;;;;;;9.41;100.00;98623.13;6621009;27;35350;-86
2022/03/31 07:26:59;;;;;;;26.75;16.15;;;;;;;9.48;100.00;98622.06;6610498;27;34729;-86
2022/03/31 07:30:04;;;;;;;27.58;16.35;;;;;;;9.47;100.00;98630.31;6614419;27;34122;-86
2022/03/31 07:33:08;;;;;;;32.63;16.60;;;;;;;9.32;100.00;98615.31;6609446;27;34410;-86
2022/03/31 07:36:17;;;;;;;29.40;16.52;;;;;;;9.41;100.00;98623.13;6587219;27;32361;-90
2022/03/31 07:39:20;;;;;;;37.30;16.45;;;;;;;9.47;100.00;98619.59;6606714;27;34716;-90
2022/03/31 07:42:24;;;;;;;31.00;16.92;;;;;;;9.49;100.00;98621.03;6607273;27;34660;-90
2022/03/31 07:45:28;;;;;;;29.95;15.15;;;;;;;9.52;100.00;98625.97;6606393;27;34334;-87
2022/03/31 07:48:32;;;;;;;34.17;15.50;;;;;;;9.52;100.00;98620.59;6606226;27;33822;-86
2022/03/31 07:51:35;;;;;;;26.30;14.85;;;;;;;9.57;100.00;98619.13;6606938;27;34070;-86
2022/03/31 07:54:38;;;;;;;28.83;15.63;;;;;;;9.54;100.00;98618.53;6604034;27;35429;-86
2022/03/31 07:57:41;;;;;;;30.48;15.88;;;;;;;9.51;100.00;98616.25;6604659;27;35141;-86
2022/03/31 08:00:50;;;;;;;29.83;16.62;;;;;;;9.47;100.00;98622.28;6605930;27;33548;-86
2022/03/31 08:03:54;;;;;;;29.40;16.55;;;;;;;9.46;100.00;98615.25;6605078;27;33596;-85
2022/03/31 08:06:57;;;;;;;33.17;17.75;;;;;;;9.50;100.00;98622.66;6605349;27;33918;-86
2022/03/31 08:10:00;;;;;;;30.05;15.63;;;;;;;9.57;100.00;98622.66;6606255;27;34645;-85
2022/03/31 08:13:04;;;;;;;28.42;16.92;;;;;;;9.47;100.00;98623.09;6605135;27;33851;-85
2022/03/31 08:16:09;;;;;;;28.15;16.77;;;;;;;9.43;100.00;98627.25;6607242;27;34355;-86
2022/03/31 08:19:13;;;;;;;34.75;17.77;;;;;;;9.46;100.00;98624.13;6606040;27;34359;-86
2022/03/31 08:22:17;;;;;;;33.70;16.58;;;;;;;9.29;100.00;98618.41;6607105;27;34582;-86
2022/03/31 08:25:21;;;;;;;34.60;16.73;;;;;;;9.30;100.00;98605.81;6604526;27;34065;-86
2022/03/31 08:28:25;;;;;;;34.72;18.52;;;;;;;9.39;100.00;98598.34;6606610;27;33936;-86
2022/03/31 08:31:28;;;;;;;29.90;18.27;;;;;;;9.46;100.00;98597.28;6604718;27;33783;-86
2022/03/31 08:34:32;;;;;;;32.22;17.35;;;;;;;9.53;100.00;98583.81;6605076;27;33882;-87
2022/03/31 08:37:35;;;;;;;30.73;16.75;;;;;;;9.65;100.00;98576.72;6606597;27;34762;-85
2022/03/31 08:40:38;;;;;;;29.75;16.87;;;;;;;9.82;100.00;98579.69;6615121;27;34211;-85
2022/03/31 08:43:42;;;;;;;28.15;16.25;;;;;;;9.93;100.00;98568.25;6617210;27;33820;-85
2022/03/31 08:46:48;;;;;;;31.17;16.85;;;;;;;10.04;100.00;98568.59;6617839;27;34386;-85
2022/03/31 08:49:51;;;;;;;34.47;16.80;;;;;;;10.10;100.00;98570.41;6610506;27;34118;-85
2022/03/31 08:52:55;;;;;;;33.03;16.95;;;;;;;10.17;100.00;98563.91;6610147;27;33724;-85
2022/03/31 08:55:58;;;;;;;28.73;16.17;;;;;;;10.24;100.00;98558.50;6615400;27;35345;-85
2022/03/31 08:59:01;;;;;;;29.15;15.45;;;;;;;10.22;100.00;98566.78;6612470;27;33750;-85
2022/03/31 09:02:04;;;;;;;33.20;16.42;;;;;;;10.19;100.00;98551.09;6610646;26;33461;-85
2022/03/31 09:05:09;;;;;;;32.38;15.30;;;;;;;10.18;100.00;98557.53;6612295;27;33713;-85
2022/03/31 09:08:14;;;;;;;25.30;13.93;;;;;;;10.10;100.00;98559.66;6609947;27;35453;-85
2022/03/31 09:11:28;;;;;;;23.95;12.90;;;;;;;10.05;100.00;98557.62;6607316;27;34608;-85
2022/03/31 09:14:37;;;;;;;28.87;13.57;;;;;;;10.03;100.00;98542.75;6610081;27;33465;-85
2022/03/31 09:17:41;;;;;;;31.48;14.90;;;;;;;10.02;100.00;98535.72;6610674;27;33569;-86
2022/03/31 09:20:44;;;;;;;34.00;15.13;;;;;;;10.13;100.00;98533.16;6611379;27;33888;-85
2022/03/31 09:23:47;;;;;;;27.95;14.85;;;;;;;10.27;100.00;98536.56;6610721;27;34034;-86
2022/03/31 09:26:50;;;;;;;25.62;13.95;;;;;;;10.19;100.00;98523.37;6588159;27;34203;-85
2022/03/31 09:30:04;;;;;;;24.27;13.98;;;;;;;10.20;100.00;98519.62;6607027;27;33616;-90
2022/03/31 09:33:07;;;;;;;27.10;12.45;;;;;;;10.21;100.00;98519.44;6608031;27;33829;-85
2022/03/31 09:36:22;;;;;;;28.02;12.35;;;;;;;10.03;100.00;98513.97;6606799;27;34105;-85
2022/03/31 09:39:25;;;;;;;23.02;12.37;;;;;;;9.94;100.00;98521.50;6612342;27;34450;-85
2022/03/31 09:42:28;;;;;;;26.48;14.40;;;;;;;9.83;100.00;98519.53;6613804;27;35315;-85
2022/03/31 09:45:41;;;;;;;27.50;14.90;;;;;;;9.81;100.00;98513.56;6620755;27;34922;-85
2022/03/31 09:48:45;;;;;;;33.05;16.60;;;;;;;9.83;100.00;98519.53;6611252;27;35453;-86
2022/03/31 09:51:52;;;;;;;33.88;15.27;;;;;;;9.75;100.00;98511.75;6607925;27;33865;-86
2022/03/31 09:54:56;;;;;;;27.35;16.37;;;;;;;9.80;100.00;98509.22;6605677;27;33522;-86
2022/03/31 09:58:00;;;;;;;31.27;16.67;;;;;;;9.91;100.00;98500.44;6605946;27;34061;-86
2022/03/31 10:01:05;;;;;;;34.05;16.25;;;;;;;10.02;100.00;98498.09;6605733;27;33891;-86
2022/03/31 10:04:10;;;;;;;26.33;17.10;;;;;;;10.10;100.00;98498.63;6605597;27;34289;-86
2022/03/31 10:07:13;;;;;;;33.50;17.33;;;;;;;10.08;100.00;98489.97;6607918;27;34586;-85
2022/03/31 10:10:16;;;;;;;28.98;17.52;;;;;;;10.11;100.00;98480.62;6608649;27;34717;-86
2022/03/31 10:13:24;;;;;;;27.13;16.12;;;;;;;10.17;100.00;98472.50;6618207;27;34151;-85
2022/03/31 10:16:50;;;;;;;29.77;16.27;;;;;;;10.43;100.00;98467.91;6626699;27;35480;-86
2022/03/31 10:19:54;;;;;;;34.63;16.92;;;;;;;10.66;100.00;98465.38;6617625;27;34312;-86
2022/03/31 10:26:27;;;;;;;32.95;15.65;;;;;;;10.52;100.00;98466.56;6611388;27;33958;-86
2022/03/31 10:29:42;;;;;;;29.10;15.45;;;;;;;10.36;100.00;98465.31;6607010;27;34067;-86
2022/03/31 10:33:04;;;;;;;31.10;15.52;;;;;;;10.12;100.00;98472.34;6605594;27;34710;-86
2022/03/31 10:36:13;;;;;;;31.62;15.77;;;;;;;10.08;100.00;98479.19;6605894;27;33940;-86
2022/03/31 10:39:19;;;;;;;29.98;15.18;;;;;;;9.98;100.00;98474.34;6603727;27;33776;-86
2022/03/31 10:42:23;;;;;;;36.95;16.85;;;;;;;10.01;100.00;98473.06;6606064;27;34499;-85
2022/03/31 10:45:40;;;;;;;28.35;15.73;;;;;;;9.87;100.00;98458.09;6610699;27;34628;-86
2022/03/31 10:48:54;;;;;;;31.73;17.85;;;;;;;10.04;100.00;98448.44;6625151;27;34361;-85
2022/03/31 10:51:58;;;;;;;31.33;19.08;;;;;;;10.01;100.00;98459.63;6625801;27;35483;-86
2022/03/31 10:55:19;;;;;;;28.02;16.92;;;;;;;10.01;100.00;98451.56;6607951;27;34599;-86
2022/03/31 10:58:25;;;;;;;28.38;18.20;;;;;;;10.08;100.00;98441.56;6587409;27;34136;-85
2022/03/31 11:01:37;;;;;;;35.70;20.20;;;;;;;10.19;100.00;98432.75;6607284;26;34731;-86
2022/03/31 11:04:56;;;;;;;28.10;16.17;;;;;;;10.23;100.00;98431.25;6604962;27;33886;-86
2022/03/31 11:08:07;;;;;;;32.08;15.98;;;;;;;10.35;100.00;98431.37;6606013;27;34057;-85
2022/03/31 11:11:30;;;;;;;32.28;17.77;;;;;;;10.29;100.00;98423.37;6606748;27;33864;-85
2022/03/31 11:14:33;;;;;;;28.98;15.38;;;;;;;10.28;100.00;98424.44;6606329;27;34711;-89
2022/03/31 11:17:37;;;;;;;27.37;15.60;;;;;;;10.17;100.00;98424.09;6607071;27;34916;-90
2022/03/31 11:20:41;;;;;;;25.48;15.55;;;;;;;10.10;100.00;98417.16;6608879;27;33933;-86
2022/03/31 11:23:47;;;;;;;29.27;16.52;;;;;;;9.98;100.00;98412.50;6608179;27;34048;-85
2022/03/31 11:26:50;;;;;;;27.30;14.60;;;;;;;9.90;100.00;98411.97;6608534;27;33768;-86
2022/03/31 11:29:59;;;;;;;27.42;17.00;;;;;;;9.96;100.00;98413.78;6608708;27;33584;-86
2022/03/31 11:33:04;;;;;;;28.30;16.70;;;;;;;9.92;100.00;98409.91;6606533;27;33600;-86
2022/03/31 11:36:07;;;;;;;27.77;16.65;;;;;;;10.02;100.00;98404.81;6606500;27;33973;-85
2022/03/31 11:39:10;;;;;;;33.28;16.33;;;;;;;10.05;100.00;98406.25;6605515;27;34491;-86
2022/03/31 11:42:13;;;;;;;27.62;15.25;;;;;;;10.10;100.00;98406.41;6606689;27;33467;-86
2022/03/31 11:45:33;;;;;;;29.33;16.98;;;;;;;10.06;100.00;98395.28;6605947;27;33753;-86
2022/03/31 11:48:41;;;;;;;27.67;15.68;;;;;;;9.93;100.00;98390.84;6607275;27;34680;-86
2022/03/31 11:51:49;;;;;;;31.43;17.33;;;;;;;10.06;100.00;98387.22;6610345;27;34547;-84
2022/03/31 11:54:53;;;;;;;30.50;16.70;;;;;;;10.12;100.00;98383.63;6606674;27;33947;-85
2022/03/31 11:57:58;;;;;;;27.00;16.33;;;;;;;10.14;100.00;98381.50;6607551;27;34081;-85
2022/03/31 12:01:02;;;;;;;24.45;16.48;;;;;;;10.20;100.00;98380.59;6606097;27;34605;-86
2022/03/31 12:04:07;;;;;;;26.15;15.73;;;;;;;10.06;100.00;98378.28;6605976;27;33468;-86
2022/03/31 12:07:11;;;;;;;28.08;14.65;;;;;;;10.01;100.00;98372.78;6605965;27;34152;-85
2022/03/31 12:10:15;;;;;;;32.05;15.02;;;;;;;9.98;100.00;98368.69;6607844;27;33701;-85
2022/03/31 12:13:22;;;;;;;22.87;14.73;;;;;;;9.84;100.00;98357.25;6606890;27;34619;-86
2022/03/31 12:16:26;;;;;;;27.25;16.33;;;;;;;9.81;100.00;98349.63;6609899;27;33979;-85
2022/03/31 12:19:40;;;;;;;28.38;16.80;;;;;;;9.83;100.00;98336.78;6607238;27;34106;-85
2022/03/31 12:22:44;;;;;;;31.05;17.25;;;;;;;9.88;100.00;98317.28;6605728;27;34889;-85
2022/03/31 12:25:47;;;;;;;31.15;18.10;;;;;;;9.97;100.00;98305.19;6606099;27;34507;-85
2022/03/31 12:28:50;;;;;;;30.33;17.42;;;;;;;10.03;100.00;98303.47;6607934;27;33988;-86
2022/03/31 12:32:08;;;;;;;30.52;17.25;;;;;;;9.99;100.00;98320.06;6606535;27;33907;-86
2022/03/31 12:35:12;;;;;;;29.60;16.95;;;;;;;9.88;100.00;98311.91;6606619;27;33876;-89
2022/03/31 12:38:15;;;;;;;27.00;17.00;;;;;;;9.87;100.00;98311.09;6607263;27;34253;-90
2022/03/31 12:41:22;;;;;;;27.90;16.98;;;;;;;9.91;100.00;98314.16;6608067;27;34134;-90
2022/03/31 12:44:31;;;;;;;27.83;16.65;;;;;;;9.91;100.00;98319.53;6609205;27;33996;-86
2022/03/31 12:47:42;;;;;;;29.92;18.37;;;;;;;9.91;100.00;98314.16;6613146;27;34090;-86
2022/03/31 12:50:45;;;;;;;29.37;17.55;;;;;;;9.96;100.00;98325.88;6612889;27;34144;-86
2022/03/31 12:53:48;;;;;;;25.80;15.10;;;;;;;10.05;100.00;98326.41;6606975;27;34716;-86
2022/03/31 12:56:54;;;;;;;28.23;15.07;;;;;;;9.99;100.00;98324.63;6608598;27;33400;-86
2022/03/31 13:00:04;;;;;;;28.20;15.77;;;;;;;10.00;100.00;98312.81;6607353;27;33792;-85
2022/03/31 13:03:19;;;;;;;26.10;16.35;;;;;;;9.89;100.00;98302.81;6606009;27;34025;-88
2022/03/31 13:06:23;;;;;;;28.23;16.62;;;;;;;9.88;100.00;98306.53;6606982;27;34211;-88
2022/03/31 13:09:26;;;;;;;26.77;16.17;;;;;;;9.84;100.00;98308.87;6607799;27;33975;-88
2022/03/31 13:16:31;;;;;;;30.15;17.73;;;;;;;9.73;100.00;98310.41;6578895;27;20061;-88
2022/03/31 13:19:35;;;;;;;33.45;16.98;;;;;;;9.69;100.00;98303.84;6591148;27;34739;-88
2022/03/31 13:22:40;;;;;;;29.40;16.50;;;;;;;9.69;100.00;98303.84;6594582;27;34451;-88
2022/03/31 13:25:46;;;;;;;26.73;17.17;;;;;;;9.72;100.00;98300.72;6588279;27;34085;-88
2022/03/31 13:28:49;;;;;;;28.08;15.93;;;;;;;9.67;100.00;98305.94;6584543;27;34489;-88
2022/03/31 13:31:53;;;;;;;32.30;17.98;;;;;;;9.70;100.00;98302.81;6580375;27;33910;-89
2022/03/31 13:34:56;;;;;;;29.83;16.60;;;;;;;9.65;100.00;98293.75;6583756;27;34684;-88
2022/03/31 13:38:00;;;;;;;33.35;17.10;;;;;;;9.59;100.00;98287.41;6567745;26;35287;-91
2022/03/31 13:41:04;;;;;;;28.80;18.50;;;;;;;9.58;100.00;98284.97;6608803;27;34372;-91
2022/03/31 13:48:09;;;;;;;30.67;18.55;;;;;;;9.67;100.00;98280.94;6565482;26;20685;-87
2022/03/31 13:51:13;;;;;;;34.97;22.02;;;;;;;9.51;100.00;98274.31;6608250;27;33824;-87
2022/03/31 13:54:18;;;;;;;34.70;21.35;;;;;;;9.47;100.00;98265.84;6608113;27;34618;-86
2022/03/31 14:04:04;;;;;;;35.03;21.12;;;;;;;9.56;100.00;98254.81;6608771;27;35126;-87
2022/03/31 14:07:07;;;;;;;33.85;19.58;;;;;;;9.52;100.00;98243.69;6607869;27;33687;-87
2022/03/31 14:10:12;;;;;;;30.67;18.87;;;;;;;9.57;100.00;98237.69;6608372;27;34824;-87
2022/03/31 14:13:21;;;;;;;36.10;21.08;;;;;;;9.49;100.00;98220.78;6607953;27;34623;-87
2022/03/31 14:16:28;;;;;;;35.97;23.58;;;;;;;9.54;100.00;98222.81;6608312;27;34394;-87
2022/03/31 14:19:34;;;;;;;34.17;17.87;;;;;;;9.50;100.00;98218.91;6607705;27;34288;-86
2022/03/31 14:22:37;;;;;;;29.23;17.48;;;;;;;9.48;100.00;98216.47;6607050;27;33585;-87
2022/03/31 14:25:40;;;;;;;32.65;17.70;;;;;;;9.60;100.00;98207.66;6606692;27;33784;-87
2022/03/31 14:28:44;;;;;;;36.58;17.50;;;;;;;9.52;100.00;98200.72;6607448;27;33611;-87
2022/03/31 14:31:50;;;;;;;33.55;16.62;;;;;;;9.48;100.00;98199.53;6609409;27;34929;-91
2022/03/31 14:34:54;;;;;;;28.60;15.75;;;;;;;9.51;100.00;98194.53;6608053;27;34685;-91
2022/03/31 14:37:56;;;;;;;32.53;17.48;;;;;;;9.53;100.00;98207.72;6607951;27;34349;-92
2022/03/31 14:41:09;;;;;;;28.55;15.93;;;;;;;9.45;100.00;98197.31;6607369;27;34630;-89
2022/03/31 14:44:16;;;;;;;30.45;17.62;;;;;;;9.42;100.00;98200.41;6606546;27;33905;-89
2022/03/31 14:47:19;;;;;;;27.52;15.95;;;;;;;9.37;100.00;98192.22;6607756;27;34880;-88
2022/03/31 14:50:23;;;;;;;32.55;17.75;;;;;;;9.41;100.00;98196.09;6606944;27;33854;-88
2022/03/31 14:53:26;;;;;;;29.83;16.42;;;;;;;9.36;100.00;98194.09;6606030;27;34550;-88
2022/03/31 14:56:30;;;;;;;29.65;15.50;;;;;;;9.40;100.00;98189.09;6605109;27;34750;-88
2022/03/31 14:59:36;;;;;;;28.02;16.65;;;;;;;9.35;100.00;98178.19;6605978;27;34739;-88
2022/03/31 15:02:42;;;;;;;24.27;14.55;;;;;;;9.33;100.00;98178.44;6606708;27;33966;-88
2022/03/31 15:05:45;;;;;;;26.52;14.90;;;;;;;9.34;100.00;98176.56;6606377;27;34247;-88
2022/03/31 15:08:49;;;;;;;28.23;15.38;;;;;;;9.28;100.00;98165.66;6606792;27;34906;-88
2022/03/31 15:15:13;;;;;;;25.25;15.18;;;;;;;9.24;100.00;98156.44;6607491;27;34108;-88
2022/03/31 15:18:16;;;;;;;31.45;16.12;;;;;;;9.22;100.00;98152.31;6607943;27;33995;-88
2022/03/31 15:21:19;;;;;;;23.08;14.40;;;;;;;9.20;100.00;98146.34;6608860;27;34338;-88
2022/03/31 15:24:22;;;;;;;26.70;14.93;;;;;;;9.25;100.00;98144.62;6610185;27;34817;-87
2022/03/31 15:27:26;;;;;;;22.67;14.55;;;;;;;9.21;100.00;98140.75;6609971;27;34015;-88
2022/03/31 15:30:29;;;;;;;28.40;15.52;;;;;;;9.25;100.00;98139.28;6610483;27;35429;-87
2022/03/31 15:33:33;;;;;;;29.25;16.02;;;;;;;9.33;100.00;98140.84;6612490;26;34876;-87
2022/03/31 15:36:36;;;;;;;25.48;15.00;;;;;;;9.34;100.00;98128.22;6610723;27;33762;-88
2022/03/31 15:39:39;;;;;;;24.35;14.85;;;;;;;9.29;100.00;98123.53;6609336;27;34588;-88
2022/03/31 15:42:48;;;;;;;25.42;13.95;;;;;;;9.33;100.00;98124.72;6609677;27;33647;-88
2022/03/31 15:45:50;;;;;;;25.58;14.90;;;;;;;9.35;100.00;98125.31;6613870;27;34439;-87
2022/03/31 15:48:54;;;;;;;24.05;13.85;;;;;;;9.35;100.00;98124.50;6610617;27;35212;-87
2022/03/31 15:51:57;;;;;;;22.05;13.88;;;;;;;9.29;100.00;98118.16;6610585;27;34488;-88
2022/03/31 15:55:00;;;;;;;26.00;12.88;;;;;;;9.24;100.00;98123.38;6610341;27;34551;-88
2022/03/31 15:58:03;;;;;;;23.10;13.70;;;;;;;9.29;100.00;98124.34;6609868;26;33957;-88
